Time;durP1;ratioP1;P1;durP2;ratioP2;P2;SDS_P1;SDS_P2;PMS_P1;PMS_P2;Temp;Humidity;BMP_temperature;BMP_pressure;BME280_temperature;BME280_humidity;BME280_pressure;Samples;Min_cycle;Max_cycle;Signal;HPM_P1;HPM_P2
2023/07/08 00:02:09;;;;;;;4.85;4.30;;;;;;;20.88;42.41;98428.84;5066365;28;20615;-73
2023/07/08 00:04:34;;;;;;;7.88;4.20;;;;;;;20.49;43.26;98432.09;5062586;28;20083;-73
2023/07/08 00:07:00;;;;;;;5.93;4.57;;;;;;;20.31;43.07;98424.78;5065462;28;20104;-73
2023/07/08 00:09:25;;;;;;;6.30;4.53;;;;;;;20.63;42.51;98432.91;5042299;28;20040;-73
2023/07/08 00:11:51;;;;;;;8.10;4.20;;;;;;;20.67;41.97;98428.47;5058286;28;20025;-73
2023/07/08 00:14:16;;;;;;;7.05;4.50;;;;;;;20.71;42.15;98423.19;5070470;28;20028;-73
2023/07/08 00:16:42;;;;;;;5.95;4.05;;;;;;;20.67;43.49;98427.66;5069135;28;20390;-73
2023/07/08 00:19:09;;;;;;;5.60;3.75;;;;;;;19.86;46.02;98428.28;5058873;28;20040;-73
2023/07/08 00:21:34;;;;;;;6.97;4.53;;;;;;;20.16;45.34;98427.75;5057096;28;20564;-73
2023/07/08 00:24:00;;;;;;;5.53;3.97;;;;;;;19.98;46.10;98426.69;5053577;28;20040;-72
2023/07/08 00:26:28;;;;;;;5.07;4.30;;;;;;;19.58;47.30;98421.88;5056908;28;20021;-73
2023/07/08 00:28:54;;;;;;;5.05;4.07;;;;;;;19.87;45.73;98418.97;5061990;28;20045;-73
2023/07/08 00:31:23;;;;;;;8.10;4.10;;;;;;;20.05;44.11;98422.78;5065486;28;20111;-73
2023/07/08 00:33:49;;;;;;;7.50;3.90;;;;;;;20.23;43.72;98422.75;5062485;28;20116;-73
2023/07/08 00:36:16;;;;;;;7.10;4.40;;;;;;;20.39;44.01;98426.00;5070042;28;20478;-73
2023/07/08 00:38:44;;;;;;;5.25;3.78;;;;;;;20.10;43.79;98412.53;5061599;28;20029;-73
2023/07/08 00:41:21;;;;;;;4.90;4.22;;;;;;;19.87;44.94;98421.69;5047206;28;20116;-73
2023/07/08 00:43:54;;;;;;;4.78;4.20;;;;;;;20.02;44.24;98415.97;5046208;28;20044;-73
2023/07/08 00:46:48;;;;;;;6.80;4.55;;;;;;;20.05;45.16;98425.50;5023600;28;20043;-75
2023/07/08 00:49:25;;;;;;;6.45;4.93;;;;;;;20.00;45.45;98412.72;5027734;28;20062;-75
2023/07/08 00:51:50;;;;;;;6.13;4.45;;;;;;;19.82;45.49;98424.50;5053181;28;20028;-74
2023/07/08 00:54:18;;;;;;;7.68;4.03;;;;;;;20.21;43.13;98416.72;5039636;28;20074;-74
2023/07/08 00:56:58;;;;;;;7.82;4.60;;;;;;;19.39;46.68;98423.00;5049899;28;20033;-74
2023/07/08 00:59:28;;;;;;;6.20;4.15;;;;;;;19.29;46.79;98424.75;5053238;28;20036;-74
2023/07/08 01:01:55;;;;;;;5.82;4.18;;;;;;;19.58;46.42;98415.63;5033388;28;20036;-74
2023/07/08 01:04:47;;;;;;;6.28;4.10;;;;;;;19.92;44.91;98421.63;5068995;28;20064;-74
2023/07/08 01:07:12;;;;;;;7.70;4.40;;;;;;;19.87;43.42;98414.31;5053866;28;20051;-74
2023/07/08 01:09:44;;;;;;;7.43;4.63;;;;;;;19.06;45.91;98414.72;5042453;28;20474;-73
2023/07/08 01:12:15;;;;;;;6.72;4.00;;;;;;;19.20;47.06;98418.34;5049853;28;20045;-75
2023/07/08 01:14:42;;;;;;;6.03;3.72;;;;;;;19.60;46.75;98418.88;5043714;28;20037;-74
2023/07/08 01:17:13;;;;;;;5.25;4.13;;;;;;;18.85;48.32;98423.44;5048856;28;20021;-74
2023/07/08 01:19:40;;;;;;;6.85;4.50;;;;;;;19.17;47.81;98416.19;5045260;28;20032;-73
2023/07/08 01:22:06;;;;;;;5.47;3.90;;;;;;;19.38;46.94;98410.44;5053217;28;20497;-73
2023/07/08 01:24:41;;;;;;;5.20;4.40;;;;;;;19.43;47.22;98407.66;5057827;28;20033;-73
2023/07/08 01:27:10;;;;;;;4.82;3.90;;;;;;;19.39;47.30;98398.44;5069164;28;20051;-73
2023/07/08 01:29:36;;;;;;;5.03;4.10;;;;;;;19.20;47.86;98398.41;5056171;28;20044;-73
2023/07/08 01:32:05;;;;;;;5.53;4.10;;;;;;;18.99;48.84;98403.34;5033146;28;20086;-73
2023/07/08 01:34:34;;;;;;;5.00;3.97;;;;;;;19.20;48.54;98392.94;5033655;28;20100;-73
2023/07/08 01:37:01;;;;;;;7.50;4.30;;;;;;;18.88;49.29;98401.03;5049509;28;20371;-72
2023/07/08 01:39:31;;;;;;;6.32;4.13;;;;;;;18.10;51.26;98405.97;5062987;28;20489;-73
2023/07/08 01:41:57;;;;;;;6.53;4.45;;;;;;;18.26;50.68;98404.72;5032999;28;20037;-74
2023/07/08 01:44:34;;;;;;;5.45;4.43;;;;;;;18.11;51.04;98413.06;5052706;28;20047;-74
2023/07/08 01:47:10;;;;;;;5.32;4.35;;;;;;;17.80;51.01;98424.25;5042400;28;20083;-75
2023/07/08 01:49:37;;;;;;;5.68;4.07;;;;;;;18.19;50.65;98420.59;5048396;28;20403;-74
2023/07/08 01:52:03;;;;;;;5.93;4.13;;;;;;;17.86;51.36;98442.16;5061660;28;20688;-74
2023/07/08 01:54:28;;;;;;;5.60;4.50;;;;;;;16.97;53.93;98468.84;5039262;28;20032;-74
2023/07/08 01:56:56;;;;;;;6.78;4.68;;;;;;;17.68;52.56;98447.50;5057452;28;20032;-74
2023/07/08 01:59:21;;;;;;;6.60;4.40;;;;;;;18.33;50.44;98437.91;5048393;28;20061;-74
2023/07/08 02:01:47;;;;;;;7.57;4.88;;;;;;;18.35;49.70;98436.53;5049397;28;20073;-74
2023/07/08 02:04:13;;;;;;;5.30;4.25;;;;;;;18.41;49.71;98440.03;5068665;28;20033;-73
2023/07/08 02:06:39;;;;;;;5.80;4.18;;;;;;;18.15;50.05;98446.81;5052972;28;20024;-72
2023/07/08 02:09:08;;;;;;;6.78;4.22;;;;;;;18.10;50.60;98449.59;5039137;28;20033;-73
2023/07/08 02:11:33;;;;;;;5.07;4.50;;;;;;;17.35;52.45;98454.50;5039473;28;20059;-73
2023/07/08 02:14:00;;;;;;;6.85;4.20;;;;;;;17.47;52.08;98445.97;5052721;28;20418;-75
2023/07/08 02:16:26;;;;;;;7.18;4.60;;;;;;;17.84;51.04;98458.00;5053090;28;20029;-74
2023/07/08 02:18:51;;;;;;;5.63;4.25;;;;;;;17.65;51.59;98448.88;5036211;28;20116;-74
2023/07/08 02:21:17;;;;;;;6.18;4.57;;;;;;;17.61;52.18;98457.91;5052647;28;20025;-72
2023/07/08 02:23:49;;;;;;;6.50;4.45;;;;;;;17.91;51.28;98450.31;5067124;28;20468;-72
2023/07/08 02:26:14;;;;;;;7.55;4.60;;;;;;;18.00;51.18;98436.03;5066010;28;20131;-72
2023/07/08 02:28:39;;;;;;;5.47;4.43;;;;;;;18.33;50.49;98446.09;5039961;28;20112;-72
2023/07/08 02:31:05;;;;;;;7.28;5.00;;;;;;;18.18;50.86;98443.53;5063488;28;20041;-72
2023/07/08 02:33:32;;;;;;;6.18;4.45;;;;;;;18.18;50.52;98444.31;5072374;28;20032;-72
2023/07/08 02:35:57;;;;;;;5.93;4.18;;;;;;;17.84;51.08;98447.09;5059181;28;20128;-73
2023/07/08 02:38:23;;;;;;;6.53;4.10;;;;;;;17.30;53.64;98446.34;5073609;28;20551;-71
2023/07/08 02:40:48;;;;;;;6.82;4.38;;;;;;;17.48;53.87;98453.84;5059881;28;20074;-76
2023/07/08 02:43:13;;;;;;;7.38;4.60;;;;;;;17.23;55.36;98445.84;5052372;28;20418;-75
2023/07/08 02:45:39;;;;;;;6.20;4.75;;;;;;;17.65;54.48;98454.31;5066390;28;20032;-74
2023/07/08 02:48:04;;;;;;;8.50;5.88;;;;;;;17.69;55.07;98443.69;5043031;28;20506;-75
2023/07/08 02:50:31;;;;;;;383.30;97.95;;;;;;;17.72;55.49;98443.91;5056837;28;20115;-76
2023/07/08 02:52:56;;;;;;;0.20;0.20;;;;;;;17.78;55.37;98437.31;5034118;28;20132;-75
2023/07/08 02:55:21;;;;;;;1999.90;999.90;;;;;;;17.79;55.03;98449.84;5052800;28;20037;-75
2023/07/08 02:57:47;;;;;;;29.13;26.73;;;;;;;17.79;54.85;98444.41;5042305;28;20067;-75
2023/07/08 03:00:13;;;;;;;25.63;14.93;;;;;;;17.72;55.50;98443.91;5062252;28;20041;-75
2023/07/08 03:02:38;;;;;;;8.57;4.93;;;;;;;17.64;56.15;98452.69;5052035;28;20028;-72
2023/07/08 03:05:05;;;;;;;8.23;7.40;;;;;;;17.47;56.13;98452.25;5052373;28;20041;-72
2023/07/08 03:07:30;;;;;;;6.00;4.70;;;;;;;17.59;56.02;98455.47;5051876;28;20426;-71
2023/07/08 03:09:56;;;;;;;7.18;4.65;;;;;;;17.80;55.42;98443.31;5055819;28;20024;-73
2023/07/08 03:12:22;;;;;;;6.97;4.85;;;;;;;17.65;55.45;98437.97;5067482;28;20025;-72
2023/07/08 03:14:47;;;;;;;8.38;4.82;;;;;;;17.36;56.58;98450.69;5063588;28;20031;-73
2023/07/08 03:17:13;;;;;;;6.80;4.68;;;;;;;17.45;55.87;98449.00;5059060;28;20024;-73
2023/07/08 03:19:38;;;;;;;8.15;4.80;;;;;;;17.05;57.30;98449.22;5055788;28;20047;-71
2023/07/08 03:22:05;;;;;;;7.15;5.03;;;;;;;17.26;57.44;98446.13;5052147;28;20025;-71
2023/07/08 03:24:31;;;;;;;8.15;4.70;;;;;;;17.17;57.01;98452.44;5060244;28;20121;-71
2023/07/08 03:27:04;;;;;;;6.53;4.20;;;;;;;17.37;56.61;98452.28;5049213;28;20044;-71
2023/07/08 03:29:30;;;;;;;7.32;4.18;;;;;;;17.48;55.75;98448.41;5051795;28;20033;-71
2023/07/08 03:31:56;;;;;;;8.73;4.82;;;;;;;17.60;55.93;98454.34;5065667;28;20025;-72
2023/07/08 03:34:22;;;;;;;7.03;4.18;;;;;;;17.61;55.44;98460.63;5035487;28;20162;-72
2023/07/08 03:36:49;;;;;;;7.10;4.10;;;;;;;17.34;55.05;98466.47;5071015;28;20056;-72
2023/07/08 03:39:23;;;;;;;6.38;4.13;;;;;;;17.59;54.63;98471.81;5059320;28;20078;-73
2023/07/08 03:41:50;;;;;;;8.65;4.65;;;;;;;17.68;53.99;98472.00;5035627;28;20033;-74
2023/07/08 03:44:15;;;;;;;7.75;4.22;;;;;;;17.72;54.25;98482.06;5067734;28;20032;-74
2023/07/08 03:46:43;;;;;;;28.17;12.73;;;;;;;17.57;55.09;98479.44;5054793;28;20426;-72
2023/07/08 03:49:10;;;;;;;3.35;2.70;;;;;;;17.79;54.03;98481.72;5052940;28;20030;-74
2023/07/08 03:51:40;;;;;;;7.57;3.92;;;;;;;17.60;54.66;98478.03;5054775;28;20036;-73
2023/07/08 03:54:06;;;;;;;8.38;5.57;;;;;;;17.83;54.07;98472.69;5053541;28;20143;-71
2023/07/08 03:56:34;;;;;;;8.45;4.60;;;;;;;18.00;53.63;98472.28;5035339;28;20075;-73
2023/07/08 03:59:00;;;;;;;5.95;4.00;;;;;;;17.80;53.33;98478.75;5050642;28;20036;-73
2023/07/08 04:01:26;;;;;;;7.03;3.38;;;;;;;17.83;54.06;98482.78;5051702;28;20028;-73
2023/07/08 04:03:55;;;;;;;3.85;3.05;;;;;;;17.67;54.69;98484.81;5054890;28;20032;-74
2023/07/08 04:06:21;;;;;;;3.85;2.38;;;;;;;17.48;55.35;98486.53;5062555;28;20040;-74
2023/07/08 04:08:46;;;;;;;5.38;2.67;;;;;;;17.71;54.43;98485.88;5034294;28;20470;-74
2023/07/08 04:11:14;;;;;;;3.75;2.92;;;;;;;17.87;54.53;98479.22;5062594;28;20025;-74
2023/07/08 04:13:40;;;;;;;5.88;2.60;;;;;;;18.08;53.68;98484.50;5050056;28;20040;-72
2023/07/08 04:16:06;;;;;;;4.95;2.75;;;;;;;18.07;54.77;98482.88;5061948;28;20028;-72
2023/07/08 04:18:31;;;;;;;5.43;2.83;;;;;;;17.78;54.67;98491.81;5051031;28;20112;-73
2023/07/08 04:20:57;;;;;;;2.97;2.15;;;;;;;17.64;54.96;98496.25;5052190;28;20372;-73
2023/07/08 04:23:23;;;;;;;3.22;2.40;;;;;;;18.00;54.25;98496.00;5058453;28;20033;-71
2023/07/08 04:25:49;;;;;;;5.57;3.28;;;;;;;17.96;55.45;98487.59;5052893;28;20031;-72
2023/07/08 04:28:15;;;;;;;4.20;2.92;;;;;;;18.44;54.03;98491.25;5054576;28;20043;-73
2023/07/08 04:30:41;;;;;;;6.20;3.60;;;;;;;18.53;54.05;98495.00;5051625;28;20103;-73
2023/07/08 04:33:08;;;;;;;6.45;3.63;;;;;;;18.10;54.73;98496.75;5033411;28;20063;-74
2023/07/08 04:35:34;;;;;;;6.68;3.38;;;;;;;18.09;54.93;98491.56;5060274;28;20020;-74
2023/07/08 04:38:00;;;;;;;5.32;3.85;;;;;;;17.95;55.71;98496.88;5052148;28;20140;-73
2023/07/08 04:40:26;;;;;;;7.07;5.10;;;;;;;17.85;57.10;98496.97;5053533;28;20103;-72
2023/07/08 04:42:52;;;;;;;7.55;5.25;;;;;;;18.26;56.04;98494.69;5059580;28;20649;-74
2023/07/08 04:45:17;;;;;;;6.95;5.55;;;;;;;18.47;54.02;98498.91;5060311;28;20515;-73
2023/07/08 04:47:46;;;;;;;10.18;5.18;;;;;;;18.55;53.51;98495.56;5066609;28;20128;-73
2023/07/08 04:50:12;;;;;;;8.60;5.18;;;;;;;19.16;52.20;98491.00;5070164;28;20020;-73
2023/07/08 04:52:38;;;;;;;6.20;3.95;;;;;;;19.48;52.40;98481.34;5053246;28;20115;-73
2023/07/08 04:55:03;;;;;;;7.47;4.47;;;;;;;19.67;50.64;98484.88;5070123;28;20111;-72
2023/07/08 04:57:29;;;;;;;8.30;4.15;;;;;;;19.88;49.55;98480.75;5056389;28;20049;-73
2023/07/08 04:59:54;;;;;;;8.07;4.22;;;;;;;20.01;49.17;98485.44;5060012;28;20036;-73
2023/07/08 05:02:19;;;;;;;9.63;4.80;;;;;;;19.93;48.86;98488.84;5049783;28;20447;-73
2023/07/08 05:04:45;;;;;;;9.45;3.92;;;;;;;20.15;48.49;98486.28;5049609;28;20121;-73
2023/07/08 05:07:10;;;;;;;6.47;4.35;;;;;;;20.36;48.58;98490.34;5063165;28;20075;-73
2023/07/08 05:09:36;;;;;;;8.77;4.35;;;;;;;20.30;49.76;98494.28;5051019;28;20036;-73
2023/07/08 05:12:01;;;;;;;8.00;4.40;;;;;;;20.40;45.88;98488.63;5049669;28;20040;-73
2023/07/08 05:14:26;;;;;;;7.18;4.30;;;;;;;20.32;47.25;98492.06;5049406;28;20454;-72
2023/07/08 05:16:52;;;;;;;6.85;4.30;;;;;;;20.62;47.11;98491.50;5049621;28;20500;-72
2023/07/08 05:19:18;;;;;;;6.15;4.55;;;;;;;20.80;48.88;98486.22;5051076;28;20391;-72
2023/07/08 05:21:45;;;;;;;8.40;4.20;;;;;;;21.05;47.53;98488.53;5052456;28;20036;-73
2023/07/08 05:24:10;;;;;;;6.50;4.55;;;;;;;21.27;46.94;98491.34;5059627;28;20029;-72
2023/07/08 05:26:36;;;;;;;6.35;4.50;;;;;;;21.03;47.74;98490.69;5046773;28;20597;-73
2023/07/08 05:29:01;;;;;;;7.47;4.20;;;;;;;21.15;47.19;98491.03;5049665;28;20028;-73
2023/07/08 05:31:27;;;;;;;6.22;4.30;;;;;;;21.43;47.57;98495.38;5063497;28;20090;-73
2023/07/08 05:33:53;;;;;;;9.38;4.20;;;;;;;21.59;47.65;98487.59;5049449;28;20059;-74
2023/07/08 05:36:18;;;;;;;6.07;4.03;;;;;;;21.58;47.33;98492.31;5050826;28;20037;-74
2023/07/08 05:38:44;;;;;;;5.88;4.10;;;;;;;21.61;46.77;98494.41;5053200;28;20060;-73
2023/07/08 05:41:09;;;;;;;5.50;3.78;;;;;;;21.43;47.32;98494.53;5054694;28;20041;-73
2023/07/08 05:43:34;;;;;;;6.35;4.35;;;;;;;21.42;47.99;98499.25;5064279;28;20108;-73
2023/07/08 05:46:01;;;;;;;6.30;4.40;;;;;;;21.73;47.45;98499.34;5057841;28;20376;-73
2023/07/08 05:48:26;;;;;;;7.75;4.63;;;;;;;22.25;46.46;98498.66;5053884;28;20047;-73
2023/07/08 05:50:52;;;;;;;7.28;4.63;;;;;;;22.46;46.11;98502.53;5059534;28;20482;-73
2023/07/08 05:53:20;;;;;;;5.20;3.78;;;;;;;22.79;45.71;98503.06;5065428;28;20032;-73
2023/07/08 05:55:45;;;;;;;6.20;4.38;;;;;;;23.04;44.39;98499.59;5054936;28;20039;-73
2023/07/08 05:58:15;;;;;;;6.22;4.47;;;;;;;22.86;44.99;98506.16;5053442;28;20017;-73
2023/07/08 06:00:40;;;;;;;6.30;4.22;;;;;;;22.91;45.11;98503.28;5051247;28;20037;-73
2023/07/08 06:03:06;;;;;;;6.22;4.35;;;;;;;23.26;44.34;98498.69;5060410;28;20032;-73
2023/07/08 06:05:32;;;;;;;5.63;4.07;;;;;;;23.52;44.52;98498.78;5066713;28;20048;-73
2023/07/08 06:07:58;;;;;;;6.68;4.22;;;;;;;23.75;46.85;98500.28;5036794;28;20021;-73
2023/07/08 06:10:23;;;;;;;6.22;4.68;;;;;;;23.58;47.27;98497.50;5066342;28;20048;-73
2023/07/08 06:12:50;;;;;;;6.05;4.18;;;;;;;23.70;46.43;98497.66;5054157;28;20124;-73
2023/07/08 06:15:15;;;;;;;7.47;4.25;;;;;;;23.97;45.04;98486.34;5053031;28;20037;-74
2023/07/08 06:17:41;;;;;;;5.70;4.28;;;;;;;24.16;45.05;98494.28;5052671;28;20038;-73
2023/07/08 06:20:08;;;;;;;6.28;3.90;;;;;;;24.03;45.50;98491.38;5066125;28;20044;-74
2023/07/08 06:22:34;;;;;;;6.22;4.70;;;;;;;24.24;45.45;98497.06;5052665;28;20383;-73
2023/07/08 06:24:59;;;;;;;7.45;4.15;;;;;;;24.36;44.95;98488.94;5053943;28;20044;-73
2023/07/08 06:27:24;;;;;;;6.75;4.15;;;;;;;24.53;44.54;98494.41;5036015;28;20107;-73
2023/07/08 06:29:50;;;;;;;7.03;4.40;;;;;;;24.82;44.11;98490.13;5052487;28;20051;-74
2023/07/08 06:32:15;;;;;;;5.82;4.03;;;;;;;24.96;43.10;98485.22;5046027;28;20025;-74
2023/07/08 06:34:41;;;;;;;5.70;4.15;;;;;;;24.60;44.90;98493.88;5073072;28;20402;-73
2023/07/08 06:37:06;;;;;;;9.23;4.03;;;;;;;25.20;40.09;98488.19;5071877;28;20473;-74
2023/07/08 06:39:31;;;;;;;7.38;4.47;;;;;;;25.33;41.75;98490.69;5053775;28;20033;-73
2023/07/08 06:41:57;;;;;;;5.65;4.05;;;;;;;25.94;39.09;98480.88;5073516;28;20028;-73
2023/07/08 06:44:27;;;;;;;6.88;3.67;;;;;;;25.88;38.13;98484.97;5053129;28;20056;-73
2023/07/08 06:46:53;;;;;;;7.22;3.80;;;;;;;26.16;36.57;98485.28;5052074;28;20041;-73
2023/07/08 06:49:18;;;;;;;5.88;3.63;;;;;;;26.33;34.89;98484.28;5052990;28;20075;-73
2023/07/08 06:51:45;;;;;;;5.85;3.75;;;;;;;26.57;34.86;98484.34;5052266;28;20033;-74
2023/07/08 06:54:13;;;;;;;5.90;3.78;;;;;;;26.59;35.21;98487.56;5035690;28;20108;-73
2023/07/08 06:56:39;;;;;;;5.90;3.67;;;;;;;26.79;35.10;98483.97;5072032;28;20078;-72
2023/07/08 06:59:05;;;;;;;7.10;4.45;;;;;;;26.76;34.09;98481.09;5054937;28;20041;-72
2023/07/08 07:01:31;;;;;;;5.72;3.83;;;;;;;26.79;34.49;98481.22;5073578;28;20029;-73
2023/07/08 07:03:56;;;;;;;5.97;4.07;;;;;;;26.88;33.89;98483.88;5072153;28;20082;-74
2023/07/08 07:06:21;;;;;;;5.80;3.63;;;;;;;27.00;34.16;98481.91;5072125;28;20036;-74
2023/07/08 07:08:47;;;;;;;6.10;3.72;;;;;;;27.02;33.48;98490.69;5052744;28;20028;-74
2023/07/08 07:11:13;;;;;;;7.32;4.28;;;;;;;27.26;33.79;98485.13;5059805;28;20379;-74
2023/07/08 07:13:38;;;;;;;6.28;4.05;;;;;;;27.17;33.53;98476.16;5068281;28;20032;-74
2023/07/08 07:16:04;;;;;;;4.68;3.70;;;;;;;27.34;32.91;98475.94;5068400;28;20540;-74
2023/07/08 07:18:29;;;;;;;5.22;3.70;;;;;;;27.68;33.23;98473.84;5056067;28;20114;-76
2023/07/08 07:20:55;;;;;;;6.10;4.10;;;;;;;27.75;32.99;98480.38;5060696;28;20040;-76
2023/07/08 07:23:20;;;;;;;5.97;4.00;;;;;;;27.92;32.74;98479.28;5059561;28;20442;-76
2023/07/08 07:25:49;;;;;;;7.30;4.10;;;;;;;27.69;32.94;98484.56;5071719;28;20120;-75
2023/07/08 07:28:16;;;;;;;5.28;3.88;;;;;;;27.70;31.99;98482.59;5053920;28;20395;-76
2023/07/08 07:30:43;;;;;;;6.07;4.05;;;;;;;27.78;32.05;98479.69;5088529;28;20040;-75
2023/07/08 07:33:09;;;;;;;8.25;3.97;;;;;;;27.70;31.79;98474.28;5051509;28;20064;-76
2023/07/08 07:35:34;;;;;;;9.75;4.22;;;;;;;28.05;32.28;98461.53;5060700;28;20067;-75
2023/07/08 07:38:00;;;;;;;5.78;3.70;;;;;;;28.00;31.34;98472.84;5071340;28;20078;-76
2023/07/08 07:40:25;;;;;;;7.03;3.97;;;;;;;27.99;30.97;98472.03;5054641;28;20123;-75
2023/07/08 07:42:50;;;;;;;5.13;3.33;;;;;;;27.81;31.69;98475.41;5059604;28;20051;-75
2023/07/08 07:45:16;;;;;;;7.90;4.35;;;;;;;28.29;31.93;98472.47;5050162;28;20507;-75
2023/07/08 07:47:41;;;;;;;6.20;3.85;;;;;;;28.20;31.28;98466.28;5051082;28;20031;-75
2023/07/08 07:50:08;;;;;;;9.57;4.30;;;;;;;28.20;31.19;98473.78;5043346;28;20039;-76
2023/07/08 07:52:34;;;;;;;7.68;4.40;;;;;;;28.49;31.42;98482.56;5053496;28;20112;-76
2023/07/08 07:54:59;;;;;;;5.72;4.05;;;;;;;28.20;31.25;98482.91;5051039;28;20119;-76
2023/07/08 07:57:25;;;;;;;4.80;3.70;;;;;;;28.39;31.22;98477.53;5051754;28;20032;-76
2023/07/08 07:59:51;;;;;;;7.38;4.43;;;;;;;28.20;31.36;98480.16;5059671;28;20501;-76
2023/07/08 08:02:17;;;;;;;6.05;3.78;;;;;;;28.72;30.95;98482.78;5056959;28;20379;-75
2023/07/08 08:04:42;;;;;;;6.28;3.95;;;;;;;28.85;31.46;98489.03;5050915;28;20040;-76
2023/07/08 08:07:08;;;;;;;7.65;3.70;;;;;;;28.33;30.84;98481.72;5070773;28;20024;-76
2023/07/08 08:09:33;;;;;;;5.15;3.60;;;;;;;28.75;31.29;98485.66;5054097;28;20497;-75
2023/07/08 08:12:01;;;;;;;5.53;3.63;;;;;;;29.07;29.93;98492.03;5069087;28;20021;-75
2023/07/08 08:14:27;;;;;;;5.70;3.30;;;;;;;28.97;30.11;98491.75;5059011;28;20036;-76
2023/07/08 08:16:52;;;;;;;6.05;3.80;;;;;;;29.05;29.76;98488.00;5056715;28;20487;-76
2023/07/08 08:19:17;;;;;;;5.32;3.72;;;;;;;28.82;29.77;98484.25;5059067;28;20108;-76
2023/07/08 08:21:43;;;;;;;6.10;3.92;;;;;;;29.07;30.06;98485.66;5070622;28;20157;-75
2023/07/08 08:24:08;;;;;;;7.35;3.65;;;;;;;29.63;30.29;98480.69;5053499;28;20475;-76
2023/07/08 08:26:34;;;;;;;4.93;2.97;;;;;;;29.51;28.54;98492.72;5069074;28;20028;-76
2023/07/08 08:29:00;;;;;;;5.25;3.45;;;;;;;28.84;28.89;98488.25;5041936;28;20479;-76
2023/07/08 08:31:25;;;;;;;4.10;2.95;;;;;;;29.32;29.09;98487.09;5056883;28;20035;-76
2023/07/08 08:33:51;;;;;;;4.50;2.83;;;;;;;29.43;28.43;98488.16;5050180;28;20407;-76
2023/07/08 08:36:17;;;;;;;5.53;3.05;;;;;;;29.47;28.41;98494.63;5052444;28;20123;-76
2023/07/08 08:38:42;;;;;;;5.80;3.78;;;;;;;29.79;28.70;98496.16;5058213;28;20526;-76
2023/07/08 08:41:13;;;;;;;6.40;3.75;;;;;;;29.94;27.26;98489.75;5052420;28;20024;-76
2023/07/08 08:43:41;;;;;;;6.30;3.88;;;;;;;29.72;28.27;98484.88;5059578;28;20115;-76
2023/07/08 08:46:20;;;;;;;7.28;4.00;;;;;;;29.47;28.03;98493.81;5066879;28;20024;-76
2023/07/08 08:49:20;;;;;;;6.85;3.95;;;;;;;29.68;27.54;98484.00;5061761;28;20041;-76
2023/07/08 08:51:47;;;;;;;7.13;3.83;;;;;;;30.18;27.98;98491.44;5056669;28;20139;-76
2023/07/08 08:54:12;;;;;;;5.45;3.45;;;;;;;30.25;26.90;98485.22;5049728;28;20035;-76
2023/07/08 08:56:48;;;;;;;5.88;3.63;;;;;;;30.13;26.92;98488.94;5043209;28;20032;-76
2023/07/08 08:59:27;;;;;;;8.10;3.95;;;;;;;30.19;26.38;98483.91;5065494;28;20065;-76
2023/07/08 09:01:54;;;;;;;6.07;3.83;;;;;;;30.56;26.13;98501.75;5063095;28;20100;-76
2023/07/08 09:04:25;;;;;;;6.03;3.45;;;;;;;30.46;26.38;98489.25;5056614;28;20052;-76
2023/07/08 09:06:52;;;;;;;6.53;3.80;;;;;;;30.73;25.58;98495.72;5050359;28;20079;-76
2023/07/08 09:09:28;;;;;;;7.47;3.38;;;;;;;30.76;24.35;98492.19;5045595;28;20028;-76
2023/07/08 09:12:03;;;;;;;5.38;3.28;;;;;;;30.71;25.44;98492.50;5064020;28;20123;-76
2023/07/08 09:14:30;;;;;;;5.07;3.72;;;;;;;30.85;25.48;98495.56;5058453;28;20041;-76
2023/07/08 09:17:01;;;;;;;5.72;3.65;;;;;;;30.71;24.99;98498.06;5051952;28;20025;-76
2023/07/08 09:19:52;;;;;;;6.18;3.50;;;;;;;30.88;25.82;98486.47;5066058;28;20040;-75
2023/07/08 09:22:41;;;;;;;5.95;3.47;;;;;;;30.72;25.15;98489.34;5021031;28;20059;-76
2023/07/08 09:25:25;;;;;;;5.97;3.30;;;;;;;31.09;24.45;98489.63;5052971;28;20040;-76
2023/07/08 09:27:50;;;;;;;26.83;5.13;;;;;;;30.89;23.95;98492.84;5059130;28;20120;-76
2023/07/08 09:30:20;;;;;;;74.72;9.40;;;;;;;31.06;23.92;98484.81;5049601;28;20120;-76
2023/07/08 09:32:46;;;;;;;6.70;4.07;;;;;;;30.95;25.08;98485.81;5062785;28;20490;-76
2023/07/08 09:35:18;;;;;;;369.55;277.00;;;;;;;31.33;24.24;98494.00;5062793;28;20032;-76
2023/07/08 09:37:46;;;;;;;80.07;10.30;;;;;;;31.13;24.89;98486.91;5063783;28;20044;-75
2023/07/08 09:40:18;;;;;;;1999.90;999.90;;;;;;;31.44;24.07;98491.44;5036287;28;20028;-76
2023/07/08 09:42:48;;;;;;;630.83;372.75;;;;;;;31.08;23.93;98484.44;5067188;28;20041;-76
2023/07/08 09:45:20;;;;;;;5.20;3.53;;;;;;;31.42;23.63;98477.81;5049617;28;20044;-76
2023/07/08 09:47:46;;;;;;;6.18;2.78;;;;;;;31.27;22.98;98492.72;5052525;28;20044;-76
2023/07/08 09:50:25;;;;;;;6.32;3.58;;;;;;;31.41;22.83;98488.16;5052829;28;20025;-76
2023/07/08 09:52:54;;;;;;;3.90;2.22;;;;;;;31.51;23.57;98491.53;5059948;28;20082;-76
2023/07/08 09:55:19;;;;;;;4.65;2.38;;;;;;;31.49;22.99;98496.66;5065821;28;20048;-75
2023/07/08 09:57:47;;;;;;;3.33;2.40;;;;;;;31.89;22.97;98480.13;5074110;28;20037;-75
2023/07/08 10:00:19;;;;;;;7.70;3.22;;;;;;;32.10;22.67;98491.59;5049158;28;20025;-75
2023/07/08 10:02:58;;;;;;;6.80;3.03;;;;;;;31.69;22.02;98503.75;5068730;28;20036;-75
2023/07/08 10:05:37;;;;;;;5.38;4.10;;;;;;;31.65;22.74;98497.31;5052460;28;20544;-76
2023/07/08 10:08:10;;;;;;;70.15;15.20;;;;;;;32.23;22.01;98484.56;5049255;28;20033;-76
2023/07/08 10:10:38;;;;;;;38.60;8.90;;;;;;;31.83;23.11;98501.16;5067320;28;20495;-75
2023/07/08 10:13:14;;;;;;;21.58;5.10;;;;;;;31.84;22.72;98484.06;5053931;28;20031;-75
2023/07/08 10:15:42;;;;;;;75.70;10.80;;;;;;;31.85;23.41;98496.00;5052836;28;20071;-75
2023/07/08 10:18:14;;;;;;;7.28;3.67;;;;;;;32.64;22.94;98494.66;5052516;28;20025;-75
2023/07/08 10:21:06;;;;;;;5.55;3.70;;;;;;;31.49;23.70;98496.66;5055899;28;20040;-75
2023/07/08 10:23:59;;;;;;;4.53;3.05;;;;;;;30.88;23.85;98492.03;5049549;28;20147;-75
2023/07/08 10:26:27;;;;;;;5.57;3.33;;;;;;;31.18;23.76;98492.19;5059392;28;20033;-76
2023/07/08 10:29:41;;;;;;;8.10;4.93;;;;;;;32.34;23.04;98485.53;5065491;28;20029;-76
2023/07/08 10:32:12;;;;;;;4.47;2.65;;;;;;;32.49;22.64;98487.31;5043071;28;20157;-75
2023/07/08 10:34:54;;;;;;;3.95;2.42;;;;;;;32.61;21.60;98480.66;5058950;28;20044;-75
2023/07/08 10:37:32;;;;;;;3.65;2.40;;;;;;;32.83;21.45;98484.47;5053251;28;20612;-76
2023/07/08 10:40:06;;;;;;;3.53;2.20;;;;;;;33.11;22.16;98473.59;5067081;28;20040;-76
2023/07/08 10:42:34;;;;;;;4.13;2.53;;;;;;;33.35;21.46;98473.00;5065345;28;20036;-76
2023/07/08 10:45:23;;;;;;;4.35;2.78;;;;;;;32.90;21.30;98481.75;5071270;28;20020;-75
2023/07/08 10:48:29;;;;;;;4.53;2.17;;;;;;;32.66;21.67;98478.34;5054882;28;20033;-76
2023/07/08 10:50:54;;;;;;;5.47;2.50;;;;;;;32.48;21.62;98480.09;5057779;28;20040;-76
2023/07/08 10:53:50;;;;;;;4.13;2.53;;;;;;;33.03;21.57;98483.09;5062096;28;20038;-76
2023/07/08 10:56:20;;;;;;;3.88;2.67;;;;;;;32.88;21.45;98487.72;5067322;28;20292;-76
2023/07/08 10:59:04;;;;;;;4.80;3.10;;;;;;;32.28;21.78;98487.03;5053592;28;20052;-75
2023/07/08 11:01:35;;;;;;;9.70;3.45;;;;;;;33.14;20.94;98478.41;5055952;28;20029;-75
2023/07/08 11:04:24;;;;;;;4.80;3.40;;;;;;;32.95;21.39;98482.22;5071669;28;20037;-76
2023/07/08 11:06:56;;;;;;;5.13;3.00;;;;;;;33.20;20.61;98465.69;5046061;28;20135;-75
2023/07/08 11:09:29;;;;;;;3.85;2.90;;;;;;;33.38;21.45;98463.81;5039031;28;20086;-76
2023/07/08 11:12:03;;;;;;;4.05;2.50;;;;;;;33.23;21.65;98476.09;5047501;28;20740;-76
2023/07/08 11:14:37;;;;;;;3.58;2.35;;;;;;;31.78;21.50;98480.00;5062934;28;20717;-76
2023/07/08 11:17:04;;;;;;;;;;;;;;;32.65;20.81;98461.97;5039275;28;20059;-75
2023/07/08 11:19:37;;;;;;;;;;;;;;;33.32;21.12;98457.00;5063570;28;19999;-75
2023/07/08 11:22:09;;;;;;;2.45;2.00;;;;;;;33.54;21.14;98458.00;5052557;28;19912;-76
2023/07/08 11:24:44;;;;;;;6.10;2.42;;;;;;;32.86;20.45;98450.22;5071618;28;20049;-75
2023/07/08 11:27:27;;;;;;;3.58;2.50;;;;;;;33.70;21.48;98453.66;5058343;28;20040;-75
2023/07/08 11:30:06;;;;;;;3.97;2.35;;;;;;;33.77;19.93;98445.31;5058179;28;20033;-76
2023/07/08 11:32:33;;;;;;;5.07;3.13;;;;;;;32.98;19.97;98452.72;5061038;28;20079;-76
2023/07/08 11:35:01;;;;;;;5.05;3.35;;;;;;;32.82;19.58;98438.19;5055602;28;20131;-75
2023/07/08 11:37:28;;;;;;;2.63;2.13;;;;;;;33.99;20.80;98440.66;5060104;28;20045;-75
2023/07/08 11:39:57;;;;;;;8.15;2.60;;;;;;;33.17;20.71;98441.31;5059302;28;20037;-76